createdAt,value
2018-01-08T20:56:51.294Z,69.20
2018-01-08T20:59:18.868Z,69.30
2018-01-08T21:01:46.418Z,69.30
2018-01-08T21:04:13.877Z,69.60
2018-01-08T21:06:41.347Z,69.60
2018-01-08T21:09:08.885Z,69.90
2018-01-08T21:11:36.342Z,70.00
2018-01-08T21:14:03.780Z,70.50
2018-01-08T21:16:31.256Z,70.60
2018-01-08T21:18:58.699Z,70.50
2018-01-08T21:21:26.807Z,70.60
2018-01-08T21:23:54.345Z,70.80
2018-01-08T21:26:22.158Z,70.90
2018-01-08T21:28:49.703Z,70.90
2018-01-08T21:31:17.155Z,71.20
2018-01-08T21:33:44.604Z,71.70
2018-01-08T21:36:12.148Z,71.40
2018-01-08T21:38:39.991Z,71.10
2018-01-08T21:41:07.505Z,71.10
2018-01-08T21:43:34.976Z,71.40
2018-01-08T21:46:02.422Z,71.30
2018-01-08T21:48:29.901Z,71.20
2018-01-08T21:50:57.347Z,71.30
2018-01-08T21:53:24.787Z,71.20
2018-01-08T21:55:52.239Z,71.60
2018-01-08T21:58:20.171Z,71.70
2018-01-08T22:00:47.678Z,71.70
2018-01-08T22:03:15.108Z,71.60
2018-01-08T22:05:42.556Z,71.60
2018-01-08T22:08:10.031Z,71.40
2018-01-08T22:10:37.611Z,71.40
2018-01-08T22:13:05.045Z,71.40
2018-01-08T22:15:32.496Z,71.70
2018-01-08T22:17:59.931Z,71.60
2018-01-08T22:20:27.422Z,71.60
2018-01-08T22:22:54.867Z,71.60
2018-01-08T22:25:22.299Z,71.30
2018-01-08T22:27:50.202Z,71.20
2018-01-08T22:30:18.320Z,71.20
2018-01-08T22:32:45.863Z,71.40
2018-01-08T22:35:13.323Z,71.30
2018-01-08T22:37:40.766Z,71.60
2018-01-08T22:40:08.231Z,71.60
2018-01-08T22:42:35.646Z,71.40
2018-01-08T22:45:03.486Z,71.20
2018-01-08T22:47:30.932Z,71.20
2018-01-08T22:49:58.489Z,71.30
2018-01-08T22:52:25.964Z,71.40
2018-01-08T22:54:53.552Z,71.50
2018-01-08T22:57:21.081Z,71.30
2018-01-08T22:59:48.560Z,71.20
2018-01-08T23:02:16.030Z,71.30
2018-01-08T23:04:43.569Z,71.20
2018-01-08T23:07:10.979Z,71.30
2018-01-08T23:09:38.483Z,71.60
2018-01-08T23:12:06.059Z,71.70
2018-01-08T23:14:33.507Z,71.80
2018-01-08T23:17:00.943Z,72.00
2018-01-08T23:19:28.768Z,71.80
2018-01-08T23:21:56.208Z,71.80
2018-01-08T23:24:23.654Z,71.90
2018-01-08T23:26:51.076Z,71.90
2018-01-08T23:29:18.649Z,71.80
2018-01-08T23:31:46.483Z,71.40
2018-01-08T23:34:13.916Z,71.40
2018-01-08T23:36:41.376Z,71.60
2018-01-08T23:39:08.814Z,71.40
2018-01-08T23:41:36.656Z,71.20
2018-01-08T23:44:04.083Z,71.20
2018-01-08T23:46:31.536Z,71.30
2018-01-08T23:48:59.031Z,71.60
2018-01-08T23:51:26.500Z,71.50
2018-01-08T23:53:54.027Z,71.90
2018-01-08T23:56:21.504Z,71.70
2018-01-08T23:58:48.964Z,71.60
